KTQE Airport (Tekamah Muni) Information

FAA: TQE - ICAO: KTQE

KTQE Airport Location

State Nebraska
County Burt
City Tekamah
KTQE Airport is 2 miles southeast of Tekamah, NE.
Latitude 41-45-48.7334N
Longitude 096-10-40.5804W
Elevation 1,026ft

KTQE Airport METARs

METAR KTQE 181254Z AUTO 15006KT 8SM CLR M06/M08 A2968 RMK AO2 SLP057 T10611083
Altimeter 29.68"
Temperature -6.1°C (21.0°F)
Wind 150° at 6KT
Clouds Skies are clear.
Visibility 8.0mi
Time observed: 2022-01-18T12:54:00Z

KTQE Airport Details

Status Operational
Activation N/A
Ownership Public
Usage Public
Chart OMAHA
ATC on-site No
Beacon schedule sunset-sunrise
Beacon color clear green

KTQE Airport Contacts

Owner TEKAMAH AIRPORT AUTHORITY
Owner address P.O.BOX 34, TEKAMAH, NE 68061
Owner phone 402-374-1771
Manager CHARLES KRUTZ
Manager address 2625 BLUFF RD, SEWARD, NE 68434
Manager phone 402-643-3464

KTQE Airport (Tekamah Muni) Radio Frequencies

KTQE (Airport) Radio Frequencies

UNICOM 123
Common traffic advisory frequency (CTAF) 123